Fortunia — V2OG3 — position and weather

sailwx.info

Track history (hours):
 
Tides and Currents Weather Stations Pressure Air Temp Water Temp Dewpoint Dewpoint Depression Visibility Wind Speed Wind Dir Waves Ship Positions

Fortunia

Last reported at 2016-May-06 03:33 UTC. Time now 2016-May-06 03:34 UTC.
Position N 36°06' W 005°25'.

Length 121 m; draft 5.5 m.

Type: Ship. MMSI: 304010638.

Date/timePositionNaut miles runAvg speedWind from/ knotsBaromVisibWave heightAir tempDewpointWater temp
2016-May-06 03:33N 36°06' W 005°25'0 0.0
2016-May-06 02:32N 36°06' W 005°25'0 0.0
2016-May-06 01:33N 36°06' W 005°25'0 0.0
2016-May-06 00:28N 36°06' W 005°25'0 0.0
2016-May-05 23:31N 36°06' W 005°25'0 0.0
2016-May-05 22:33N 36°06' W 005°25'0 0.3
2016-May-05 21:33N 36°06' W 005°25'6 6.2
2016-May-05 20:33N 36°05' W 005°17'22411.2
2016-May-05 00:31N 36°35' W 000°42'1611.3
2016-May-04 23:06N 36°38' W 000°22'711.2
2016-May-04 22:28N 36°39' W 000°13'1111.4
2016-May-04 21:29N 36°40' E 000°01'1011.1
2016-May-04 20:33N 36°41' E 000°13'1111.0
2016-May-04 19:33N 36°42' E 000°27'1111.0
2016-May-04 18:33N 36°44' E 000°41'1411.3
2016-May-04 17:20N 36°45' E 000°58'1210.4
2016-May-04 16:11N 36°47' E 001°12'1010.4
2016-May-04 15:13N 36°48' E 001°25'79 8.0
2016-May-04 05:20N 36°46' E 003°04'0 0.0
2016-May-04 04:17N 36°46' E 003°04'0 0.0
2016-May-04 03:29N 36°46' E 003°04'0 0.0
2016-May-04 02:28N 36°46' E 003°04'0 0.0
2016-May-03 09:27N 36°46' E 003°04'0 0.0
2016-May-03 08:32N 36°46' E 003°04'0 0.0
2016-May-03 04:31N 36°46' E 003°04'0 0.0
2016-May-03 03:30N 36°46' E 003°04'402 8.9
2016-May-01 06:33N 36°05' W 005°13'10 8.8
2016-May-01 05:28N 36°08' W 005°25'1 0.8
2016-May-01 04:31N 36°08' W 005°25'0 0.0
2016-May-01 03:31N 36°08' W 005°25'0 0.0
2016-May-01 02:30N 36°08' W 005°25'0 0.0
2016-May-01 01:33N 36°08' W 005°25'0 0.0
2016-Apr-30 23:26N 36°08' W 005°25'0 0.0
2016-Apr-30 22:31N 36°08' W 005°25'0 0.0
2016-Apr-30 21:31N 36°08' W 005°25'0 0.0
2016-Apr-30 20:33N 36°08' W 005°25'0 0.0
2016-Apr-30 19:33N 36°08' W 005°25'0 0.0
2016-Apr-30 18:24N 36°08' W 005°25'0 0.0
2016-Apr-30 17:32N 36°08' W 005°25'0 0.0
2016-Apr-30 16:32N 36°08' W 005°25'0 0.0
2016-Apr-30 15:31N 36°08' W 005°25'0 0.0
2016-Apr-30 14:31N 36°08' W 005°25'0 0.0
2016-Apr-30 12:25N 36°08' W 005°25'2 2.1
2016-Apr-30 11:32N 36°06' W 005°25'0 0.1
2016-Apr-30 10:29N 36°06' W 005°25'0 0.0
2016-Apr-30 09:25N 36°06' W 005°25'0 0.0
2016-Apr-30 08:22N 36°06' W 005°25'0 0.1
2016-Apr-30 07:21N 36°06' W 005°25'0 0.1
2016-Apr-30 06:33N 36°06' W 005°25'0 0.1
2016-Apr-30 05:29N 36°06' W 005°25'0 0.0
2016-Apr-30 04:32N 36°06' W 005°25'0 0.0
2016-Apr-30 03:29N 36°06' W 005°25'0 0.1
2016-Apr-30 02:31N 36°06' W 005°25'0 0.0
2016-Apr-30 01:31N 36°06' W 005°25'0 0.0
2016-Apr-30 00:33N 36°06' W 005°25'0 0.0
2016-Apr-29 23:33N 36°06' W 005°25'0 0.0
2016-Apr-29 22:32N 36°06' W 005°25'0 0.0
2016-Apr-29 21:32N 36°06' W 005°25'0 0.0
2016-Apr-29 20:31N 36°06' W 005°25'0 0.0
2016-Apr-29 19:31N 36°06' W 005°25'0 0.0
2016-Apr-29 18:19N 36°06' W 005°25'0 0.0
2016-Apr-29 17:27N 36°06' W 005°25'0 0.0
2016-Apr-29 16:24N 36°06' W 005°25'0 0.0
2016-Apr-29 15:26N 36°06' W 005°25'0 0.1
2016-Apr-29 14:32N 36°06' W 005°25'0 0.0
2016-Apr-29 13:28N 36°06' W 005°25'0 0.0
2016-Apr-29 12:31N 36°06' W 005°25'0 0.0
2016-Apr-29 11:31N 36°06' W 005°25'0 0.0
2016-Apr-29 10:33N 36°06' W 005°25'0 0.0
2016-Apr-29 09:33N 36°06' W 005°25'0 0.0
2016-Apr-29 08:32N 36°06' W 005°25'0 0.0
2016-Apr-29 07:32N 36°06' W 005°25'0 0.0
2016-Apr-29 06:31N 36°06' W 005°25'0 0.0
2016-Apr-29 05:31N 36°06' W 005°25'0 0.0
2016-Apr-29 04:31N 36°06' W 005°25'0 0.1
2016-Apr-29 03:33N 36°06' W 005°25'0 0.0
2016-Apr-29 02:33N 36°06' W 005°25'0 0.1
2016-Apr-29 01:32N 36°06' W 005°25'0 0.0
2016-Apr-29 00:26N 36°06' W 005°25'0 0.0
2016-Apr-28 23:31N 36°06' W 005°25'0 0.0
2016-Apr-28 22:31N 36°06' W 005°25'0 0.0
2016-Apr-28 21:28N 36°06' W 005°25'0 0.1
2016-Apr-28 20:33N 36°06' W 005°25'0 0.1
2016-Apr-28 19:33N 36°06' W 005°25'0 0.0
2016-Apr-28 17:32N 36°06' W 005°25'0 0.0
2016-Apr-28 16:25N 36°06' W 005°25'0 0.0
2016-Apr-28 15:25N 36°06' W 005°25'0 0.0
2016-Apr-28 14:28N 36°06' W 005°25'0 0.0
2016-Apr-28 13:33N 36°06' W 005°25'0 0.0
2016-Apr-28 12:05N 36°06' W 005°25'0 0.1
2016-Apr-28 11:32N 36°06' W 005°25'0 0.0
2016-Apr-28 10:23N 36°06' W 005°25'0 0.1
2016-Apr-28 09:28N 36°06' W 005°25'0 0.0
2016-Apr-28 08:22N 36°06' W 005°25'0 0.0
2016-Apr-28 07:24N 36°06' W 005°25'0 0.0
2016-Apr-28 06:30N 36°06' W 005°25'0 0.0
2016-Apr-28 05:33N 36°06' W 005°25'0 0.0
2016-Apr-28 04:29N 36°06' W 005°25'0 0.1
2016-Apr-28 03:17N 36°06' W 005°25'0 0.2
2016-Apr-28 02:31N 36°06' W 005°25'0 0.0
2016-Apr-28 01:31N 36°06' W 005°25'0 0.1
2016-Apr-28 00:24N 36°06' W 005°25'0 0.0
2016-Apr-27 23:15N 36°06' W 005°25'0 0.0
2016-Apr-27 22:30N 36°06' W 005°25'0 0.0
2016-Apr-27 21:29N 36°06' W 005°25'0 0.0
2016-Apr-27 20:29N 36°06' W 005°25'0 0.1
2016-Apr-27 19:31N 36°06' W 005°25'0 0.0
2016-Apr-27 16:27N 36°06' W 005°25'0 0.1
2016-Apr-27 15:27N 36°06' W 005°25'0 0.1
2016-Apr-27 14:29N 36°06' W 005°25'0 0.0
2016-Apr-27 13:11N 36°06' W 005°25'0 0.1
2016-Apr-27 12:31N 36°06' W 005°25'0 0.0
2016-Apr-27 11:28N 36°06' W 005°25'6 3.2
2016-Apr-27 09:33N 36°04' W 005°18'21710.8
2016-Apr-26 13:33N 36°35' W 000°52'1111.3
2016-Apr-26 12:33N 36°36' W 000°38'1111.2
2016-Apr-26 11:33N 36°37' W 000°24'1111.1
2016-Apr-26 10:33N 36°39' W 000°10'1111.0
2016-Apr-26 09:33N 36°40' E 000°03'1111.2
2016-Apr-26 08:33N 36°42' E 000°17'1210.8
2016-Apr-26 07:28N 36°44' E 000°32'1210.8
2016-Apr-26 06:20N 36°45' E 000°47'810.8
2016-Apr-26 05:33N 36°47' E 000°57'1110.5
2016-Apr-26 04:31N 36°48' E 001°11'  
Track history (hours):
 
Tides and Currents Weather Stations Pressure Air Temp Water Temp Dewpoint Dewpoint Depression Visibility Wind Speed Wind Dir Waves Ship Positions

Fortunia

Last reported at 2016-May-06 03:33 UTC. Time now 2016-May-06 03:34 UTC.
Position N 36°06' W 005°25'.

Length 121 m; draft 5.5 m.

Type: Ship. MMSI: 304010638.

Date/timePositionNaut miles runAvg speedWind from/ knotsBaromVisibWave heightAir tempDewpointWater temp
2016-May-06 03:33N 36°06' W 005°25'0 0.0
2016-May-06 02:32N 36°06' W 005°25'0 0.0
2016-May-06 01:33N 36°06' W 005°25'0 0.0
2016-May-06 00:28N 36°06' W 005°25'0 0.0
2016-May-05 23:31N 36°06' W 005°25'0 0.0
2016-May-05 22:33N 36°06' W 005°25'0 0.3
2016-May-05 21:33N 36°06' W 005°25'6 6.2
2016-May-05 20:33N 36°05' W 005°17'22411.2
2016-May-05 00:31N 36°35' W 000°42'1611.3
2016-May-04 23:06N 36°38' W 000°22'711.2
2016-May-04 22:28N 36°39' W 000°13'1111.4
2016-May-04 21:29N 36°40' E 000°01'1011.1
2016-May-04 20:33N 36°41' E 000°13'1111.0
2016-May-04 19:33N 36°42' E 000°27'1111.0
2016-May-04 18:33N 36°44' E 000°41'1411.3
2016-May-04 17:20N 36°45' E 000°58'1210.4
2016-May-04 16:11N 36°47' E 001°12'1010.4
2016-May-04 15:13N 36°48' E 001°25'79 8.0
2016-May-04 05:20N 36°46' E 003°04'0 0.0
2016-May-04 04:17N 36°46' E 003°04'0 0.0
2016-May-04 03:29N 36°46' E 003°04'0 0.0
2016-May-04 02:28N 36°46' E 003°04'0 0.0
2016-May-03 09:27N 36°46' E 003°04'0 0.0
2016-May-03 08:32N 36°46' E 003°04'0 0.0
2016-May-03 04:31N 36°46' E 003°04'0 0.0
2016-May-03 03:30N 36°46' E 003°04'402 8.9
2016-May-01 06:33N 36°05' W 005°13'10 8.8
2016-May-01 05:28N 36°08' W 005°25'1 0.8
2016-May-01 04:31N 36°08' W 005°25'0 0.0
2016-May-01 03:31N 36°08' W 005°25'0 0.0
2016-May-01 02:30N 36°08' W 005°25'0 0.0
2016-May-01 01:33N 36°08' W 005°25'0 0.0
2016-Apr-30 23:26N 36°08' W 005°25'0 0.0
2016-Apr-30 22:31N 36°08' W 005°25'0 0.0
2016-Apr-30 21:31N 36°08' W 005°25'0 0.0
2016-Apr-30 20:33N 36°08' W 005°25'0 0.0
2016-Apr-30 19:33N 36°08' W 005°25'0 0.0
2016-Apr-30 18:24N 36°08' W 005°25'0 0.0
2016-Apr-30 17:32N 36°08' W 005°25'0 0.0
2016-Apr-30 16:32N 36°08' W 005°25'0 0.0
2016-Apr-30 15:31N 36°08' W 005°25'0 0.0
2016-Apr-30 14:31N 36°08' W 005°25'0 0.0
2016-Apr-30 12:25N 36°08' W 005°25'2 2.1
2016-Apr-30 11:32N 36°06' W 005°25'0 0.1
2016-Apr-30 10:29N 36°06' W 005°25'0 0.0
2016-Apr-30 09:25N 36°06' W 005°25'0 0.0
2016-Apr-30 08:22N 36°06' W 005°25'0 0.1
2016-Apr-30 07:21N 36°06' W 005°25'0 0.1
2016-Apr-30 06:33N 36°06' W 005°25'0 0.1
2016-Apr-30 05:29N 36°06' W 005°25'0 0.0
2016-Apr-30 04:32N 36°06' W 005°25'0 0.0
2016-Apr-30 03:29N 36°06' W 005°25'0 0.1
2016-Apr-30 02:31N 36°06' W 005°25'0 0.0
2016-Apr-30 01:31N 36°06' W 005°25'0 0.0
2016-Apr-30 00:33N 36°06' W 005°25'0 0.0
2016-Apr-29 23:33N 36°06' W 005°25'0 0.0
2016-Apr-29 22:32N 36°06' W 005°25'0 0.0
2016-Apr-29 21:32N 36°06' W 005°25'0 0.0
2016-Apr-29 20:31N 36°06' W 005°25'0 0.0
2016-Apr-29 19:31N 36°06' W 005°25'0 0.0
2016-Apr-29 18:19N 36°06' W 005°25'0 0.0
2016-Apr-29 17:27N 36°06' W 005°25'0 0.0
2016-Apr-29 16:24N 36°06' W 005°25'0 0.0
2016-Apr-29 15:26N 36°06' W 005°25'0 0.1
2016-Apr-29 14:32N 36°06' W 005°25'0 0.0
2016-Apr-29 13:28N 36°06' W 005°25'0 0.0
2016-Apr-29 12:31N 36°06' W 005°25'0 0.0
2016-Apr-29 11:31N 36°06' W 005°25'0 0.0
2016-Apr-29 10:33N 36°06' W 005°25'0 0.0
2016-Apr-29 09:33N 36°06' W 005°25'0 0.0
2016-Apr-29 08:32N 36°06' W 005°25'0 0.0
2016-Apr-29 07:32N 36°06' W 005°25'0 0.0
2016-Apr-29 06:31N 36°06' W 005°25'0 0.0
2016-Apr-29 05:31N 36°06' W 005°25'0 0.0
2016-Apr-29 04:31N 36°06' W 005°25'0 0.1
2016-Apr-29 03:33N 36°06' W 005°25'0 0.0
2016-Apr-29 02:33N 36°06' W 005°25'0 0.1
2016-Apr-29 01:32N 36°06' W 005°25'0 0.0
2016-Apr-29 00:26N 36°06' W 005°25'0 0.0
2016-Apr-28 23:31N 36°06' W 005°25'0 0.0
2016-Apr-28 22:31N 36°06' W 005°25'0 0.0
2016-Apr-28 21:28N 36°06' W 005°25'0 0.1
2016-Apr-28 20:33N 36°06' W 005°25'0 0.1
2016-Apr-28 19:33N 36°06' W 005°25'0 0.0
2016-Apr-28 17:32N 36°06' W 005°25'0 0.0
2016-Apr-28 16:25N 36°06' W 005°25'0 0.0
2016-Apr-28 15:25N 36°06' W 005°25'0 0.0
2016-Apr-28 14:28N 36°06' W 005°25'0 0.0
2016-Apr-28 13:33N 36°06' W 005°25'0 0.0
2016-Apr-28 12:05N 36°06' W 005°25'0 0.1
2016-Apr-28 11:32N 36°06' W 005°25'0 0.0
2016-Apr-28 10:23N 36°06' W 005°25'0 0.1
2016-Apr-28 09:28N 36°06' W 005°25'0 0.0
2016-Apr-28 08:22N 36°06' W 005°25'0 0.0
2016-Apr-28 07:24N 36°06' W 005°25'0 0.0
2016-Apr-28 06:30N 36°06' W 005°25'0 0.0
2016-Apr-28 05:33N 36°06' W 005°25'0 0.0
2016-Apr-28 04:29N 36°06' W 005°25'0 0.1
2016-Apr-28 03:17N 36°06' W 005°25'0 0.2
2016-Apr-28 02:31N 36°06' W 005°25'0 0.0
2016-Apr-28 01:31N 36°06' W 005°25'0 0.1
2016-Apr-28 00:24N 36°06' W 005°25'0 0.0
2016-Apr-27 23:15N 36°06' W 005°25'0 0.0
2016-Apr-27 22:30N 36°06' W 005°25'0 0.0
2016-Apr-27 21:29N 36°06' W 005°25'0 0.0
2016-Apr-27 20:29N 36°06' W 005°25'0 0.1
2016-Apr-27 19:31N 36°06' W 005°25'0 0.0
2016-Apr-27 16:27N 36°06' W 005°25'0 0.1
2016-Apr-27 15:27N 36°06' W 005°25'0 0.1
2016-Apr-27 14:29N 36°06' W 005°25'0 0.0
2016-Apr-27 13:11N 36°06' W 005°25'0 0.1
2016-Apr-27 12:31N 36°06' W 005°25'0 0.0
2016-Apr-27 11:28N 36°06' W 005°25'6 3.2
2016-Apr-27 09:33N 36°04' W 005°18'21710.8
2016-Apr-26 13:33N 36°35' W 000°52'1111.3
2016-Apr-26 12:33N 36°36' W 000°38'1111.2
2016-Apr-26 11:33N 36°37' W 000°24'1111.1
2016-Apr-26 10:33N 36°39' W 000°10'1111.0
2016-Apr-26 09:33N 36°40' E 000°03'1111.2
2016-Apr-26 08:33N 36°42' E 000°17'1210.8
2016-Apr-26 07:28N 36°44' E 000°32'1210.8
2016-Apr-26 06:20N 36°45' E 000°47'810.8
2016-Apr-26 05:33N 36°47' E 000°57'1110.5
2016-Apr-26 04:31N 36°48' E 001°11'  

Dump ship's entire track history